createdAt,value
2018-07-19T00:01:01.807Z,2.70
2018-07-19T00:03:06.590Z,3.10
2018-07-19T00:05:11.245Z,2.80
2018-07-19T00:07:15.876Z,2.97
2018-07-19T00:09:20.572Z,3.00
2018-07-19T00:11:25.266Z,2.80
2018-07-19T00:13:29.972Z,2.37
2018-07-19T00:15:34.622Z,2.90
2018-07-19T00:17:39.384Z,3.97
2018-07-19T00:19:43.666Z,4.40
2018-07-19T00:21:48.380Z,3.73
2018-07-19T00:23:53.167Z,3.60
2018-07-19T00:25:58.329Z,3.10
2018-07-19T00:28:03.107Z,3.10
2018-07-19T00:30:07.966Z,2.67
2018-07-19T00:32:12.595Z,3.67
2018-07-19T00:34:17.283Z,3.20
2018-07-19T00:36:22.286Z,3.70
2018-07-19T00:38:27.140Z,2.93
2018-07-19T00:40:31.910Z,3.20
2018-07-19T00:42:36.609Z,3.37
2018-07-19T00:44:41.390Z,3.50
2018-07-19T00:46:46.911Z,3.30
2018-07-19T00:48:51.578Z,3.17
2018-07-19T00:50:56.249Z,3.40
2018-07-19T00:53:00.902Z,3.50
2018-07-19T00:55:05.680Z,3.37
2018-07-19T00:57:10.370Z,3.30
2018-07-19T00:59:15.050Z,2.93
2018-07-19T01:01:19.743Z,2.73
2018-07-19T01:03:24.412Z,3.33
2018-07-19T01:05:29.098Z,3.23
2018-07-19T01:07:33.817Z,3.67
2018-07-19T01:09:38.477Z,3.30
2018-07-19T01:11:43.121Z,3.10
2018-07-19T01:13:47.813Z,2.67
2018-07-19T01:15:52.586Z,2.63
2018-07-19T01:17:57.344Z,2.67
2018-07-19T01:20:02.076Z,3.20
2018-07-19T01:22:06.828Z,2.57
2018-07-19T01:24:11.494Z,3.00
2018-07-19T01:26:16.174Z,2.93
2018-07-19T01:28:20.819Z,2.90
2018-07-19T01:30:25.564Z,3.03
2018-07-19T01:32:30.278Z,3.03
2018-07-19T01:34:34.969Z,3.20
2018-07-19T01:36:39.603Z,3.00
2018-07-19T01:38:44.317Z,3.03
2018-07-19T01:40:48.974Z,3.10
2018-07-19T01:42:53.761Z,3.37
2018-07-19T01:44:58.595Z,3.03
2018-07-19T01:47:03.369Z,2.97
2018-07-19T01:49:08.014Z,3.30
2018-07-19T01:51:12.716Z,2.80
2018-07-19T01:53:17.359Z,2.90
2018-07-19T01:55:22.023Z,3.23
2018-07-19T01:57:26.747Z,3.03
2018-07-19T01:59:31.380Z,3.50
2018-07-19T02:01:35.985Z,2.60
2018-07-19T02:03:40.709Z,2.33
2018-07-19T02:05:45.503Z,3.77
2018-07-19T02:07:50.197Z,3.23
2018-07-19T02:09:54.885Z,2.90
2018-07-19T02:11:59.688Z,3.10
2018-07-19T02:14:04.425Z,2.90
2018-07-19T02:16:09.066Z,2.70
2018-07-19T02:18:13.759Z,3.00
2018-07-19T02:20:18.411Z,2.83
2018-07-19T02:22:23.114Z,3.33
2018-07-19T02:24:27.803Z,2.73
2018-07-19T02:26:32.492Z,2.67
2018-07-19T02:28:37.321Z,3.40
2018-07-19T02:30:42.029Z,3.00
2018-07-19T02:32:46.703Z,3.30
2018-07-19T02:34:51.412Z,3.40
2018-07-19T02:36:56.073Z,3.70
2018-07-19T02:39:00.979Z,3.47
2018-07-19T02:41:05.689Z,3.23
2018-07-19T02:43:10.328Z,2.40
2018-07-19T02:45:15.056Z,2.93
2018-07-19T02:47:19.762Z,2.73
2018-07-19T02:49:24.442Z,3.40
2018-07-19T02:51:29.062Z,2.90
2018-07-19T02:53:33.690Z,2.70
2018-07-19T02:55:38.357Z,3.07
2018-07-19T02:57:43.025Z,3.77
2018-07-19T02:59:47.726Z,3.40
2018-07-19T03:01:52.365Z,3.17
2018-07-19T03:03:57.006Z,3.70
2018-07-19T03:06:01.679Z,3.03
2018-07-19T03:08:06.361Z,3.13
2018-07-19T03:10:11.154Z,2.90
2018-07-19T03:12:15.803Z,3.07
2018-07-19T03:14:20.529Z,3.10
2018-07-19T03:16:25.171Z,3.90
2018-07-19T03:18:29.821Z,3.57
2018-07-19T03:20:34.541Z,3.33
2018-07-19T03:22:39.378Z,3.40
2018-07-19T03:24:44.164Z,3.27
2018-07-19T03:26:48.871Z,3.03
2018-07-19T03:28:53.554Z,2.93
2018-07-19T03:30:58.287Z,3.57
2018-07-19T03:33:02.906Z,3.00
2018-07-19T03:35:07.540Z,3.10
2018-07-19T03:37:12.190Z,3.57
2018-07-19T03:39:16.852Z,3.83
2018-07-19T03:41:21.521Z,3.10
2018-07-19T03:43:26.182Z,3.40
2018-07-19T03:45:30.845Z,3.77
2018-07-19T03:47:35.496Z,3.00
2018-07-19T03:49:40.162Z,3.17
2018-07-19T03:51:44.854Z,3.30
2018-07-19T03:53:49.506Z,3.33
2018-07-19T03:55:53.849Z,3.63
2018-07-19T03:57:58.492Z,3.47
2018-07-19T04:00:03.171Z,3.20
2018-07-19T04:02:07.856Z,4.10
2018-07-19T04:04:12.502Z,3.67
2018-07-19T04:06:17.140Z,3.10
2018-07-19T04:08:21.771Z,3.87
2018-07-19T04:10:26.425Z,3.20
2018-07-19T04:12:31.073Z,4.03
2018-07-19T04:14:35.843Z,3.20
2018-07-19T04:16:40.560Z,3.50
2018-07-19T04:18:45.266Z,3.33
2018-07-19T04:20:50.029Z,2.97
2018-07-19T04:22:55.470Z,3.10
2018-07-19T04:25:00.200Z,3.80
2018-07-19T04:27:04.933Z,3.53
2018-07-19T04:29:09.823Z,3.10
2018-07-19T04:31:14.581Z,3.20
2018-07-19T04:33:19.312Z,3.10
2018-07-19T04:35:24.012Z,3.20
2018-07-19T04:37:30.478Z,3.23
2018-07-19T04:39:35.197Z,2.93
2018-07-19T04:41:39.885Z,3.43
2018-07-19T04:43:44.672Z,3.17
2018-07-19T04:45:49.311Z,3.07
2018-07-19T04:47:54.062Z,3.77
2018-07-19T04:49:59.865Z,3.00
2018-07-19T04:52:04.709Z,2.67
2018-07-19T04:54:09.383Z,3.60
2018-07-19T04:56:13.907Z,2.70
2018-07-19T04:58:18.705Z,3.90
2018-07-19T05:00:23.447Z,3.13
2018-07-19T05:02:28.116Z,3.90
2018-07-19T05:04:32.854Z,3.10
2018-07-19T05:06:37.830Z,3.43
2018-07-19T05:08:42.692Z,2.80
2018-07-19T05:10:47.774Z,3.17
2018-07-19T05:12:52.455Z,3.23
2018-07-19T05:14:57.373Z,2.90
2018-07-19T05:17:02.177Z,3.70
2018-07-19T05:19:07.033Z,2.80
2018-07-19T05:21:12.324Z,3.10
2018-07-19T05:23:17.124Z,3.70
2018-07-19T05:25:21.987Z,3.57
2018-07-19T05:27:26.657Z,3.33
2018-07-19T05:29:31.351Z,3.80
2018-07-19T05:31:37.123Z,4.20
2018-07-19T05:33:41.856Z,3.73
2018-07-19T05:35:47.093Z,3.20
2018-07-19T05:37:51.791Z,3.90
2018-07-19T05:39:57.034Z,2.70
2018-07-19T05:42:01.909Z,3.50
2018-07-19T05:44:07.088Z,3.27
2018-07-19T05:46:11.882Z,3.83
2018-07-19T05:48:16.828Z,3.40
2018-07-19T05:50:21.693Z,3.57
2018-07-19T05:52:26.569Z,3.23
2018-07-19T05:54:31.580Z,3.40
2018-07-19T05:56:36.880Z,3.07
2018-07-19T05:58:41.655Z,3.87
2018-07-19T06:00:46.430Z,3.47
2018-07-19T06:02:51.248Z,3.73
2018-07-19T06:04:56.100Z,3.50
2018-07-19T06:07:00.826Z,3.63
2018-07-19T06:09:09.159Z,3.20
2018-07-19T06:11:13.981Z,3.10
2018-07-19T06:13:19.296Z,3.00
2018-07-19T06:15:24.061Z,3.70
2018-07-19T06:17:28.928Z,2.97
2018-07-19T06:19:33.751Z,3.50
2018-07-19T06:21:38.501Z,3.90
2018-07-19T06:23:43.271Z,3.00
2018-07-19T06:25:48.100Z,3.70
2018-07-19T06:27:53.148Z,3.23
2018-07-19T06:29:58.350Z,3.60
2018-07-19T06:32:03.133Z,3.80
2018-07-19T06:34:07.913Z,3.20
2018-07-19T06:36:12.869Z,2.97
2018-07-19T06:38:17.846Z,3.10
2018-07-19T06:40:22.534Z,3.30
2018-07-19T06:42:27.300Z,3.50
2018-07-19T06:44:32.121Z,3.13
2018-07-19T06:46:36.976Z,3.07
2018-07-19T06:48:41.902Z,3.93
2018-07-19T06:50:46.758Z,4.10
2018-07-19T06:52:51.542Z,2.83
2018-07-19T06:54:56.310Z,4.10
2018-07-19T06:57:01.079Z,3.67
2018-07-19T06:59:05.837Z,3.07
2018-07-19T07:01:10.628Z,3.23
2018-07-19T07:03:15.478Z,3.20
2018-07-19T07:05:20.209Z,2.33
2018-07-19T07:07:25.003Z,3.60
2018-07-19T07:09:29.855Z,3.63
2018-07-19T07:11:34.792Z,2.70
2018-07-19T07:13:39.674Z,2.90
2018-07-19T07:15:44.508Z,2.77
2018-07-19T07:17:49.441Z,2.90
2018-07-19T07:19:54.284Z,3.17
2018-07-19T07:21:59.173Z,2.30
2018-07-19T07:24:04.027Z,3.00
2018-07-19T07:26:08.951Z,3.07
2018-07-19T07:28:13.877Z,3.10
2018-07-19T07:30:18.679Z,2.73
2018-07-19T07:32:23.516Z,2.97
2018-07-19T07:34:28.450Z,2.87
2018-07-19T07:36:33.330Z,2.97
2018-07-19T07:38:37.809Z,3.10
2018-07-19T07:40:42.695Z,2.87
2018-07-19T07:42:47.591Z,2.40
2018-07-19T07:44:52.439Z,2.90
2018-07-19T07:46:57.768Z,2.80
2018-07-19T07:49:02.573Z,2.70
2018-07-19T07:51:07.296Z,2.77
2018-07-19T07:53:12.052Z,3.40
2018-07-19T07:55:17.180Z,3.13
2018-07-19T07:57:21.957Z,3.27
2018-07-19T07:59:27.055Z,2.43
2018-07-19T08:01:31.876Z,2.47
2018-07-19T08:03:36.639Z,3.20
2018-07-19T08:05:41.408Z,2.90
2018-07-19T08:07:46.273Z,2.93
2018-07-19T08:09:51.234Z,2.87
2018-07-19T08:11:56.172Z,2.80
2018-07-19T08:14:01.006Z,2.90
2018-07-19T08:16:05.709Z,2.60
2018-07-19T08:18:10.510Z,2.70
2018-07-19T08:20:15.295Z,2.83
2018-07-19T08:22:20.032Z,3.10
2018-07-19T08:24:24.815Z,2.97
2018-07-19T08:26:29.623Z,2.77
2018-07-19T08:28:34.338Z,2.90
2018-07-19T08:30:39.223Z,3.57
2018-07-19T08:32:43.968Z,3.40
2018-07-19T08:34:48.819Z,3.60
2018-07-19T08:36:53.576Z,3.10
2018-07-19T08:38:58.388Z,2.80
2018-07-19T08:41:03.286Z,2.93
2018-07-19T08:43:07.850Z,2.37
2018-07-19T08:45:12.522Z,2.70
2018-07-19T08:47:17.250Z,3.47
2018-07-19T08:49:22.046Z,3.60
2018-07-19T08:51:26.928Z,2.70
2018-07-19T08:53:31.659Z,3.13
2018-07-19T08:55:36.468Z,2.50
2018-07-19T08:57:41.208Z,3.07
2018-07-19T08:59:45.913Z,2.67
2018-07-19T09:01:50.940Z,2.57
2018-07-19T09:03:55.404Z,3.00
2018-07-19T09:05:59.781Z,3.33
2018-07-19T09:08:04.584Z,2.67
2018-07-19T09:10:09.408Z,3.00
2018-07-19T09:12:14.468Z,2.30
2018-07-19T09:14:19.207Z,2.37
2018-07-19T09:18:37.694Z,2.73
2018-07-19T09:20:42.546Z,3.40
2018-07-19T09:22:47.302Z,2.57
2018-07-19T09:24:51.976Z,2.37
2018-07-19T09:26:56.736Z,2.60
2018-07-19T09:29:01.425Z,2.60
2018-07-19T09:31:06.228Z,2.67
2018-07-19T09:33:11.042Z,2.50
2018-07-19T09:35:15.817Z,2.50
2018-07-19T09:37:20.773Z,2.60
2018-07-19T09:39:25.709Z,2.57
2018-07-19T09:41:30.456Z,2.37
2018-07-19T09:43:35.302Z,2.10
2018-07-19T09:45:40.076Z,2.70
2018-07-19T09:47:44.776Z,2.80
2018-07-19T09:49:49.483Z,2.63
2018-07-19T09:51:54.310Z,2.63
2018-07-19T09:53:59.483Z,2.83
2018-07-19T09:56:04.179Z,2.27
2018-07-19T09:58:09.064Z,2.80
2018-07-19T10:00:18.229Z,2.40
2018-07-19T10:02:23.521Z,2.30
2018-07-19T10:04:29.473Z,2.30
2018-07-19T10:06:36.693Z,2.30
2018-07-19T10:08:41.517Z,2.83
2018-07-19T10:10:46.523Z,2.27
2018-07-19T10:12:51.544Z,3.00
2018-07-19T10:14:56.563Z,2.73
2018-07-19T10:17:01.675Z,2.90
2018-07-19T10:19:06.695Z,2.50
2018-07-19T10:21:11.592Z,2.80
2018-07-19T10:23:16.605Z,2.17
2018-07-19T10:25:21.635Z,2.30
2018-07-19T10:27:26.642Z,2.33
2018-07-19T10:29:32.605Z,2.10
2018-07-19T10:31:37.981Z,2.63
2018-07-19T10:33:43.235Z,2.50
2018-07-19T10:35:48.879Z,2.23
2018-07-19T10:37:54.178Z,2.30
2018-07-19T10:39:59.175Z,2.80
2018-07-19T10:42:04.774Z,2.43
2018-07-19T10:44:10.277Z,3.13
2018-07-19T10:46:15.919Z,3.10
2018-07-19T10:48:20.728Z,3.07
2018-07-19T10:50:26.656Z,2.87
2018-07-19T10:52:31.954Z,2.50
2018-07-19T10:54:36.840Z,3.10
2018-07-19T10:56:41.721Z,2.43
2018-07-19T10:58:46.570Z,2.73
2018-07-19T11:00:51.742Z,2.73
2018-07-19T11:02:56.607Z,2.30
2018-07-19T11:05:01.345Z,2.50
2018-07-19T11:07:06.583Z,2.83
2018-07-19T11:09:11.452Z,2.10
2018-07-19T11:11:16.508Z,2.90
2018-07-19T11:13:21.606Z,2.90
2018-07-19T11:15:26.495Z,2.97
2018-07-19T11:17:31.677Z,2.70
2018-07-19T11:19:36.616Z,2.43
2018-07-19T11:21:41.373Z,2.70
2018-07-19T11:23:46.922Z,3.57
2018-07-19T11:25:52.151Z,2.50
2018-07-19T11:27:56.925Z,2.50
2018-07-19T11:30:01.627Z,2.77
2018-07-19T11:32:06.976Z,4.00
2018-07-19T11:34:11.713Z,3.00
2018-07-19T11:36:16.994Z,3.23
2018-07-19T11:38:22.333Z,3.57
2018-07-19T11:40:28.189Z,3.40
2018-07-19T11:42:33.208Z,3.13
2018-07-19T11:44:38.244Z,2.60
2018-07-19T11:46:43.429Z,2.40
2018-07-19T11:48:48.946Z,3.33
2018-07-19T11:50:54.943Z,3.13
2018-07-19T11:52:59.894Z,2.83
2018-07-19T11:55:04.588Z,2.63
2018-07-19T11:57:09.703Z,2.90
2018-07-19T11:59:14.852Z,3.07
2018-07-19T12:01:20.166Z,2.90
2018-07-19T12:03:25.221Z,3.73
2018-07-19T12:05:30.010Z,4.07
2018-07-19T12:07:34.803Z,3.13
2018-07-19T12:09:39.442Z,2.87
2018-07-19T12:11:44.244Z,4.17
2018-07-19T12:13:49.098Z,3.00
2018-07-19T12:15:53.914Z,3.20
2018-07-19T12:17:58.591Z,3.13
2018-07-19T12:20:03.329Z,3.50
2018-07-19T12:22:08.049Z,3.17
2018-07-19T12:24:12.676Z,3.13
2018-07-19T12:26:17.325Z,4.40
2018-07-19T12:28:22.028Z,2.87
2018-07-19T12:30:26.682Z,3.40
2018-07-19T12:32:31.360Z,3.00
2018-07-19T12:34:36.405Z,3.03
2018-07-19T12:36:41.258Z,3.33
2018-07-19T12:38:46.021Z,2.93
2018-07-19T12:40:51.142Z,2.90
2018-07-19T12:42:55.922Z,3.87
2018-07-19T12:45:00.788Z,3.40
2018-07-19T12:47:06.192Z,3.60
2018-07-19T12:49:11.571Z,3.70
2018-07-19T12:51:16.377Z,3.87
2018-07-19T12:53:21.129Z,3.30
2018-07-19T12:55:26.602Z,3.00
2018-07-19T12:57:31.415Z,2.77
2018-07-19T12:59:36.414Z,3.00
2018-07-19T13:01:41.010Z,2.77
2018-07-19T13:03:45.595Z,3.00
2018-07-19T13:05:50.229Z,2.63
2018-07-19T13:07:54.889Z,3.27
2018-07-19T13:09:59.467Z,3.00
2018-07-19T13:12:04.145Z,2.83
2018-07-19T13:14:10.301Z,3.30
2018-07-19T13:16:15.674Z,3.50
2018-07-19T13:18:20.418Z,2.73
2018-07-19T13:20:24.696Z,3.47
2018-07-19T13:22:29.605Z,2.90
2018-07-19T13:24:34.400Z,2.83
2018-07-19T13:26:39.354Z,2.90
2018-07-19T13:28:44.126Z,3.33
2018-07-19T13:30:48.818Z,2.67
2018-07-19T13:32:53.447Z,3.30
2018-07-19T13:34:58.061Z,3.27
2018-07-19T13:37:03.292Z,2.70
2018-07-19T13:39:09.670Z,3.00
2018-07-19T13:41:15.300Z,3.07
2018-07-19T13:43:20.367Z,3.40
2018-07-19T13:45:25.675Z,3.27
2018-07-19T13:47:30.612Z,3.43
2018-07-19T13:49:35.326Z,3.30
2018-07-19T13:51:40.444Z,3.67
2018-07-19T13:54:19.673Z,3.30
2018-07-19T13:56:27.864Z,4.10
2018-07-19T13:58:33.243Z,3.50
2018-07-19T14:00:38.195Z,3.30
2018-07-19T14:02:43.737Z,3.10
2018-07-19T14:04:48.631Z,3.20
2018-07-19T14:06:53.624Z,3.40
2018-07-19T14:08:58.588Z,3.57
2018-07-19T14:11:03.369Z,3.70
2018-07-19T14:13:08.195Z,3.00
2018-07-19T14:15:13.488Z,3.50
2018-07-19T14:17:18.483Z,3.07
2018-07-19T14:19:23.485Z,3.17
2018-07-19T14:21:28.456Z,3.27
2018-07-19T14:23:33.486Z,4.20
2018-07-19T14:25:38.611Z,2.93
2018-07-19T14:27:43.711Z,3.30
2018-07-19T14:29:48.641Z,3.13
2018-07-19T14:31:53.592Z,2.93
2018-07-19T14:33:58.605Z,3.03
2018-07-19T14:36:03.587Z,4.00
2018-07-19T14:38:08.669Z,3.37
2018-07-19T14:40:13.394Z,3.30
2018-07-19T14:42:18.206Z,3.77
2018-07-19T14:44:23.407Z,3.77
2018-07-19T14:46:28.356Z,3.37
2018-07-19T14:48:33.267Z,3.13
2018-07-19T14:50:37.855Z,3.93
2018-07-19T14:52:43.003Z,3.23
2018-07-19T14:54:47.842Z,3.70
2018-07-19T14:56:52.928Z,3.23
2018-07-19T14:58:57.936Z,3.70
2018-07-19T15:01:02.753Z,3.40
2018-07-19T15:03:07.869Z,3.40
2018-07-19T15:05:12.973Z,3.60
2018-07-19T15:07:17.765Z,3.10
2018-07-19T15:09:22.396Z,3.73
2018-07-19T15:11:27.156Z,3.20
2018-07-19T15:13:31.900Z,3.20
2018-07-19T15:15:36.579Z,3.63
2018-07-19T15:17:41.875Z,3.97
2018-07-19T15:19:47.081Z,2.93
2018-07-19T15:21:51.823Z,4.27
2018-07-19T15:23:57.526Z,3.33
2018-07-19T15:26:02.223Z,3.20
2018-07-19T15:28:06.957Z,4.10
2018-07-19T15:30:11.972Z,3.37
2018-07-19T15:32:17.143Z,2.83
2018-07-19T15:34:23.265Z,3.33
2018-07-19T15:36:27.920Z,3.20
2018-07-19T15:38:32.940Z,3.53
2018-07-19T15:40:38.289Z,3.37
2018-07-19T15:42:44.317Z,2.87
2018-07-19T15:44:49.654Z,2.90
2018-07-19T15:46:55.648Z,3.77
2018-07-19T15:49:00.548Z,3.63
2018-07-19T15:51:08.021Z,3.37
2018-07-19T15:53:13.644Z,3.80
2018-07-19T15:55:19.487Z,3.00
2018-07-19T15:57:24.458Z,3.67
2018-07-19T15:59:29.556Z,3.07
2018-07-19T16:01:34.707Z,3.57
2018-07-19T16:03:39.540Z,2.83
2018-07-19T16:05:44.252Z,3.73
2018-07-19T16:07:48.889Z,3.53
2018-07-19T16:09:53.523Z,3.50
2018-07-19T16:11:58.217Z,2.97
2018-07-19T16:14:02.890Z,3.13
2018-07-19T16:16:07.705Z,3.10
2018-07-19T16:18:12.401Z,3.00
2018-07-19T16:20:17.117Z,3.57
2018-07-19T16:22:21.834Z,3.47
2018-07-19T16:24:26.551Z,3.70
2018-07-19T16:26:31.294Z,3.20
2018-07-19T16:28:36.031Z,3.57
2018-07-19T16:30:40.636Z,3.63
2018-07-19T16:32:45.344Z,3.83
2018-07-19T16:34:50.670Z,3.13
2018-07-19T16:36:55.388Z,3.60
2018-07-19T16:39:00.180Z,3.60
2018-07-19T16:41:04.981Z,3.37
2018-07-19T16:43:09.831Z,3.40
2018-07-19T16:45:14.739Z,3.07
2018-07-19T16:47:19.517Z,3.40
2018-07-19T16:49:24.588Z,3.37
2018-07-19T16:51:29.974Z,3.20
2018-07-19T16:53:34.719Z,3.60
2018-07-19T16:55:39.465Z,4.27
2018-07-19T16:57:44.346Z,3.80
2018-07-19T16:59:49.236Z,3.30
2018-07-19T17:01:54.068Z,3.33
2018-07-19T17:03:58.946Z,4.23
2018-07-19T17:06:03.749Z,3.50
2018-07-19T17:08:08.549Z,3.83
2018-07-19T17:10:13.374Z,3.70
2018-07-19T17:12:18.147Z,4.10
2018-07-19T17:14:23.187Z,3.90
2018-07-19T17:16:27.948Z,3.63
2018-07-19T17:18:32.668Z,3.37
2018-07-19T17:20:37.994Z,3.37
2018-07-19T17:22:42.905Z,3.20
2018-07-19T17:24:47.983Z,3.23
2018-07-19T17:26:53.023Z,4.60
2018-07-19T17:28:58.883Z,4.17
2018-07-19T17:31:03.914Z,3.83
2018-07-19T17:33:09.055Z,4.33
2018-07-19T17:35:13.840Z,4.70
2018-07-19T17:37:18.800Z,4.85
2018-07-19T17:39:23.818Z,5.10
2018-07-19T17:41:28.675Z,4.53
2018-07-19T17:43:33.562Z,4.53
2018-07-19T17:45:38.385Z,4.03
2018-07-19T17:47:43.784Z,4.10
2018-07-19T17:49:48.818Z,3.80
2018-07-19T17:51:54.907Z,3.70
2018-07-19T17:54:00.155Z,3.55
2018-07-19T17:56:05.159Z,3.42
2018-07-19T17:58:09.959Z,3.77
2018-07-19T18:00:14.681Z,3.40
2018-07-19T18:02:19.517Z,3.05
2018-07-19T18:04:25.616Z,3.70
2018-07-19T18:06:33.346Z,3.87
2018-07-19T18:08:40.869Z,3.52
2018-07-19T18:10:46.689Z,3.52
2018-07-19T18:12:52.770Z,3.42
2018-07-19T18:17:21.594Z,3.85
2018-07-19T18:19:26.911Z,3.70
2018-07-19T18:21:31.828Z,3.27
2018-07-19T18:23:36.903Z,3.37
2018-07-19T18:25:41.779Z,3.90
2018-07-19T18:27:46.729Z,3.33
2018-07-19T18:29:52.710Z,3.60
2018-07-19T18:31:57.711Z,3.63
2018-07-19T18:34:02.802Z,3.20
2018-07-19T18:36:07.627Z,3.30
2018-07-19T18:38:12.444Z,3.10
2018-07-19T18:40:17.415Z,3.40
2018-07-19T18:42:22.186Z,3.27
2018-07-19T18:44:26.904Z,3.40
2018-07-19T18:46:32.233Z,2.77
2018-07-19T18:48:37.440Z,3.60
2018-07-19T18:50:42.302Z,3.70
2018-07-19T18:53:03.190Z,3.83
2018-07-19T18:55:14.938Z,3.60
2018-07-19T18:57:20.690Z,4.10
2018-07-19T18:59:25.735Z,3.27
2018-07-19T19:01:30.835Z,4.20
2018-07-19T19:03:35.760Z,3.50
2018-07-19T19:05:41.463Z,3.90
2018-07-19T19:07:45.911Z,3.97
2018-07-19T19:09:50.665Z,3.53
2018-07-19T19:11:55.981Z,3.63
2018-07-19T19:14:00.839Z,3.97
2018-07-19T19:16:05.939Z,3.67
2018-07-19T19:18:10.759Z,4.17
2018-07-19T19:20:15.454Z,3.77
2018-07-19T19:22:20.272Z,3.47
2018-07-19T19:24:25.166Z,3.37
2018-07-19T19:26:30.429Z,3.47
2018-07-19T19:28:36.036Z,3.53
2018-07-19T19:30:41.064Z,3.60
2018-07-19T19:32:45.972Z,3.70
2018-07-19T19:34:50.478Z,3.63
2018-07-19T19:36:55.387Z,3.50
2018-07-19T19:39:00.503Z,3.70
2018-07-19T19:41:06.371Z,3.70
2018-07-19T19:43:11.627Z,3.50
2018-07-19T19:45:16.847Z,3.60
2018-07-19T19:47:22.172Z,3.53
2018-07-19T19:49:27.590Z,3.60
2018-07-19T19:51:32.428Z,4.10
2018-07-19T19:53:37.522Z,3.70
2018-07-19T19:55:43.320Z,3.57
2018-07-19T19:57:48.155Z,4.10
2018-07-19T19:59:53.051Z,4.87
2018-07-19T20:01:58.714Z,4.87
2018-07-19T20:04:04.723Z,4.80
2018-07-19T20:06:10.928Z,5.63
2018-07-19T20:08:15.869Z,4.73
2018-07-19T20:10:20.718Z,3.87
2018-07-19T20:12:25.615Z,3.23
2018-07-19T20:14:30.442Z,3.90
2018-07-19T20:16:35.142Z,3.70
2018-07-19T20:18:39.888Z,4.50
2018-07-19T20:20:44.608Z,4.47
2018-07-19T20:22:49.636Z,3.77
2018-07-19T20:24:54.356Z,4.20
2018-07-19T20:26:59.221Z,3.60
2018-07-19T20:29:03.750Z,3.83
2018-07-19T20:31:09.337Z,4.60
2018-07-19T20:33:14.823Z,4.07
2018-07-19T20:35:19.777Z,4.63
2018-07-19T20:37:24.283Z,4.27
2018-07-19T20:39:29.186Z,3.80
2018-07-19T20:41:33.958Z,4.60
2018-07-19T20:43:38.357Z,4.13
2018-07-19T20:45:43.264Z,4.00
2018-07-19T20:47:48.128Z,4.20
2018-07-19T20:49:53.083Z,3.90
2018-07-19T20:51:57.995Z,4.00
2018-07-19T20:54:02.816Z,3.70
2018-07-19T20:56:07.652Z,4.80
2018-07-19T20:58:12.403Z,4.57
2018-07-19T21:00:17.143Z,3.30
2018-07-19T21:02:21.832Z,3.53
2018-07-19T21:04:26.537Z,3.80
2018-07-19T21:06:31.313Z,3.03
2018-07-19T21:08:36.155Z,3.27
2018-07-19T21:10:40.905Z,3.87
2018-07-19T21:12:45.675Z,3.13
2018-07-19T21:14:50.377Z,2.90
2018-07-19T21:16:55.551Z,3.20
2018-07-19T21:19:00.383Z,3.03
2018-07-19T21:21:05.185Z,3.67
2018-07-19T21:23:09.931Z,3.80
2018-07-19T21:25:14.590Z,4.27
2018-07-19T21:27:19.294Z,4.10
2018-07-19T21:31:39.652Z,3.90
2018-07-19T21:33:44.394Z,2.83
2018-07-19T21:35:49.139Z,2.87
2018-07-19T21:37:53.885Z,2.20
2018-07-19T21:39:58.635Z,2.60
2018-07-19T21:42:02.968Z,3.03
2018-07-19T21:44:08.162Z,2.23
2018-07-19T21:46:13.017Z,2.30
2018-07-19T21:48:17.421Z,2.80
2018-07-19T21:50:22.225Z,2.53
2018-07-19T21:52:26.898Z,2.67
2018-07-19T21:54:31.604Z,3.00
2018-07-19T21:56:36.233Z,2.37
2018-07-19T21:58:40.572Z,2.90
2018-07-19T22:01:21.762Z,2.80
2018-07-19T22:03:26.569Z,2.37
2018-07-19T22:05:31.276Z,2.57
2018-07-19T22:07:35.984Z,2.63
2018-07-19T22:09:40.658Z,2.30
2018-07-19T22:11:45.410Z,2.77
2018-07-19T22:13:50.132Z,2.90
2018-07-19T22:15:54.964Z,2.67
2018-07-19T22:17:59.722Z,2.43
2018-07-19T22:20:04.205Z,2.27
2018-07-19T22:22:08.932Z,2.73
2018-07-19T22:24:13.619Z,1.90
2018-07-19T22:26:18.375Z,2.53
2018-07-19T22:28:23.052Z,2.30
2018-07-19T22:30:27.778Z,3.20
2018-07-19T22:32:32.512Z,2.10
2018-07-19T22:34:37.232Z,2.43
2018-07-19T22:36:41.955Z,2.17
2018-07-19T22:38:46.815Z,2.67
2018-07-19T22:40:51.527Z,2.20
2018-07-19T22:42:56.243Z,2.33
2018-07-19T22:45:00.897Z,2.20
2018-07-19T22:47:05.613Z,2.60
2018-07-19T22:49:10.338Z,2.00
2018-07-19T22:51:15.055Z,2.50
2018-07-19T22:53:19.749Z,2.17
2018-07-19T22:55:24.497Z,2.60
2018-07-19T22:57:29.532Z,1.90
2018-07-19T22:59:34.366Z,2.40
2018-07-19T23:01:39.107Z,2.27
2018-07-19T23:03:43.780Z,1.80
2018-07-19T23:05:48.545Z,2.20
2018-07-19T23:07:53.221Z,2.60
2018-07-19T23:09:57.886Z,2.13
2018-07-19T23:12:02.517Z,2.10
2018-07-19T23:14:07.285Z,1.77
2018-07-19T23:16:11.624Z,1.60
2018-07-19T23:18:16.291Z,2.10
2018-07-19T23:20:20.967Z,2.57
2018-07-19T23:22:25.726Z,2.23
2018-07-19T23:24:30.479Z,2.07
2018-07-19T23:26:35.241Z,1.90
2018-07-19T23:28:40.061Z,1.70
2018-07-19T23:30:44.764Z,1.80
2018-07-19T23:32:49.246Z,2.37
2018-07-19T23:34:54.186Z,1.73
2018-07-19T23:37:03.705Z,1.77
2018-07-19T23:39:12.472Z,2.00
2018-07-19T23:41:21.254Z,2.10
2018-07-19T23:43:30.999Z,1.80
2018-07-19T23:45:40.457Z,1.80
2018-07-19T23:47:45.769Z,2.20
2018-07-19T23:49:50.384Z,1.80
2018-07-19T23:51:55.094Z,1.93
2018-07-19T23:53:59.728Z,1.80
2018-07-19T23:56:04.442Z,1.83
2018-07-19T23:58:09.074Z,2.07
